createdAt,value
2023-04-30T00:00:42.776Z,18.07
2023-04-30T00:03:10.415Z,18.87
2023-04-30T00:05:38.736Z,19.10
2023-04-30T00:08:06.680Z,17.77
2023-04-30T00:10:35.322Z,19.70
2023-04-30T00:13:03.762Z,19.03
2023-04-30T00:15:31.111Z,19.33
2023-04-30T00:17:58.418Z,18.00
2023-04-30T00:20:26.022Z,19.00
2023-04-30T00:22:53.623Z,19.80
2023-04-30T00:25:21.713Z,20.57
2023-04-30T00:27:49.907Z,19.30
2023-04-30T00:30:18.594Z,18.60
2023-04-30T00:32:46.461Z,19.70
2023-04-30T00:35:14.852Z,20.13
2023-04-30T00:37:43.478Z,19.93
2023-04-30T00:40:11.072Z,20.87
2023-04-30T00:42:38.789Z,18.27
2023-04-30T00:45:07.893Z,19.37
2023-04-30T00:47:35.444Z,20.90
2023-04-30T00:50:03.371Z,19.67
2023-04-30T00:52:33.574Z,19.50
2023-04-30T00:55:03.119Z,20.80
2023-04-30T00:57:30.657Z,19.43
2023-04-30T00:59:58.449Z,19.33
2023-04-30T01:02:26.511Z,21.23
2023-04-30T01:04:54.300Z,19.80
2023-04-30T01:07:21.969Z,20.80
2023-04-30T01:09:49.392Z,19.73
2023-04-30T01:12:21.744Z,21.33
2023-04-30T01:14:49.112Z,21.50
2023-04-30T01:17:19.700Z,21.30
2023-04-30T01:19:49.172Z,22.33
2023-04-30T01:22:31.086Z,21.23
2023-04-30T01:25:12.419Z,22.30
2023-04-30T01:27:51.924Z,22.17
2023-04-30T01:30:21.962Z,22.53
2023-04-30T01:32:49.136Z,22.90
2023-04-30T01:35:16.833Z,23.63
2023-04-30T01:37:50.773Z,22.17
2023-04-30T01:40:18.258Z,21.73
2023-04-30T01:43:04.686Z,22.53
2023-04-30T01:45:44.395Z,22.43
2023-04-30T01:48:30.380Z,22.63
2023-04-30T01:51:02.609Z,23.60
2023-04-30T01:53:33.992Z,22.80
2023-04-30T01:56:06.553Z,23.40
2023-04-30T01:58:35.188Z,24.30
2023-04-30T02:01:04.783Z,22.30
2023-04-30T02:03:33.867Z,24.30
2023-04-30T02:06:01.561Z,22.17
2023-04-30T02:08:29.124Z,21.93
2023-04-30T02:10:56.390Z,24.70
2023-04-30T02:13:23.728Z,23.43
2023-04-30T02:15:51.011Z,23.07
2023-04-30T02:18:18.352Z,23.30
2023-04-30T02:20:46.204Z,23.63
2023-04-30T02:23:13.502Z,23.73
2023-04-30T02:25:40.640Z,23.10
2023-04-30T02:28:08.238Z,22.60
2023-04-30T02:30:35.641Z,23.17
2023-04-30T02:33:03.596Z,23.70
2023-04-30T02:35:30.913Z,23.83
2023-04-30T02:37:58.320Z,24.10
2023-04-30T02:40:26.391Z,23.83
2023-04-30T02:42:57.038Z,24.23
2023-04-30T02:45:24.306Z,24.27
2023-04-30T02:47:51.655Z,23.80
2023-04-30T02:50:19.178Z,24.40
2023-04-30T02:52:48.704Z,22.30
2023-04-30T02:55:16.709Z,25.00
2023-04-30T02:57:43.854Z,22.07
2023-04-30T03:00:11.299Z,23.37
2023-04-30T03:02:38.865Z,22.57
2023-04-30T03:05:06.593Z,23.30
2023-04-30T03:07:33.908Z,25.37
2023-04-30T03:10:01.396Z,22.47
2023-04-30T03:12:28.603Z,24.90
2023-04-30T03:14:55.949Z,22.53
2023-04-30T03:17:24.897Z,23.43
2023-04-30T03:19:52.588Z,24.13
2023-04-30T03:22:23.605Z,22.60
2023-04-30T03:24:51.028Z,23.60
2023-04-30T03:27:18.566Z,24.30
2023-04-30T03:29:45.893Z,22.73
2023-04-30T03:32:13.443Z,21.77
2023-04-30T03:34:40.969Z,23.30
2023-04-30T03:37:08.140Z,22.87
2023-04-30T03:39:35.412Z,22.20
2023-04-30T03:42:03.730Z,23.57
2023-04-30T03:44:31.162Z,23.83
2023-04-30T03:46:58.525Z,23.50
2023-04-30T03:49:27.189Z,24.00
2023-04-30T03:51:54.789Z,23.70
2023-04-30T03:54:23.664Z,22.57
2023-04-30T03:56:51.180Z,22.63
2023-04-30T03:59:19.251Z,26.20
2023-04-30T04:01:46.787Z,23.87
2023-04-30T04:04:17.238Z,26.30
2023-04-30T04:06:44.913Z,24.17
2023-04-30T04:09:12.323Z,23.67
2023-04-30T04:11:42.448Z,23.57
2023-04-30T04:14:09.646Z,22.93
2023-04-30T04:16:38.262Z,24.23
2023-04-30T04:19:06.579Z,22.33
2023-04-30T04:21:33.910Z,23.33
2023-04-30T04:24:08.456Z,21.67
2023-04-30T04:26:36.425Z,25.80
2023-04-30T04:29:04.717Z,25.30
2023-04-30T04:31:33.521Z,23.93
2023-04-30T04:34:01.562Z,23.87
2023-04-30T04:36:30.278Z,22.97
2023-04-30T04:39:01.909Z,25.30
2023-04-30T04:41:30.109Z,23.13
2023-04-30T04:43:58.173Z,24.37
2023-04-30T04:46:28.649Z,24.80
2023-04-30T04:48:56.189Z,23.40
2023-04-30T04:51:23.327Z,26.20
2023-04-30T04:53:50.736Z,23.50
2023-04-30T04:56:18.942Z,25.47
2023-04-30T04:58:46.257Z,22.60
2023-04-30T05:01:13.812Z,23.67
2023-04-30T05:03:41.614Z,23.80
2023-04-30T05:06:09.043Z,22.50
2023-04-30T05:08:36.277Z,25.00
2023-04-30T05:11:03.659Z,23.47
2023-04-30T05:13:31.162Z,22.97
2023-04-30T05:15:58.706Z,22.03
2023-04-30T05:18:26.978Z,23.10
2023-04-30T05:20:54.111Z,24.60
2023-04-30T05:23:21.434Z,21.67
2023-04-30T05:25:52.499Z,21.90
2023-04-30T05:28:19.679Z,23.63
2023-04-30T05:30:46.844Z,23.80
2023-04-30T05:33:14.010Z,21.93
2023-04-30T05:35:41.222Z,21.70
2023-04-30T05:38:09.717Z,21.57
2023-04-30T05:40:36.908Z,22.43
2023-04-30T05:43:04.240Z,22.27
2023-04-30T05:45:31.488Z,22.77
2023-04-30T05:47:58.820Z,21.67
2023-04-30T05:50:25.973Z,21.43
2023-04-30T05:52:53.115Z,22.47
2023-04-30T05:55:20.351Z,21.43
2023-04-30T05:57:47.709Z,20.80
2023-04-30T06:00:16.090Z,19.90
2023-04-30T06:02:43.243Z,21.77
2023-04-30T06:05:10.531Z,20.63
2023-04-30T06:07:37.786Z,19.93
2023-04-30T06:10:05.141Z,17.83
2023-04-30T06:12:33.023Z,18.97
2023-04-30T06:15:00.411Z,17.20
2023-04-30T06:17:27.651Z,16.20
2023-04-30T06:19:55.999Z,17.40
2023-04-30T06:22:23.517Z,16.77
2023-04-30T06:24:50.645Z,16.47
2023-04-30T06:27:17.825Z,16.03
2023-04-30T06:29:44.962Z,16.60
2023-04-30T06:32:12.145Z,17.83
2023-04-30T06:34:39.363Z,16.27
2023-04-30T06:37:06.640Z,16.73
2023-04-30T06:39:33.766Z,14.80
2023-04-30T06:42:03.296Z,14.97
2023-04-30T06:44:30.965Z,15.10
2023-04-30T06:46:58.954Z,15.43
2023-04-30T06:49:26.092Z,13.60
2023-04-30T06:51:54.311Z,13.50
2023-04-30T06:54:22.766Z,14.00
2023-04-30T06:56:49.992Z,14.57
2023-04-30T06:59:17.715Z,14.20
2023-04-30T07:01:44.868Z,14.33
2023-04-30T07:04:12.600Z,14.40
2023-04-30T07:06:39.790Z,12.87
2023-04-30T07:09:07.342Z,12.67
2023-04-30T07:11:34.483Z,13.47
2023-04-30T07:14:01.587Z,14.03
2023-04-30T07:16:28.862Z,13.40
2023-04-30T07:18:56.185Z,13.53
2023-04-30T07:21:25.421Z,12.37
2023-04-30T07:23:52.701Z,13.67
2023-04-30T07:26:19.912Z,12.23
2023-04-30T07:28:49.766Z,12.13
2023-04-30T07:31:17.027Z,13.50
2023-04-30T07:33:44.839Z,12.60
2023-04-30T07:36:12.187Z,12.30
2023-04-30T07:38:39.463Z,11.90
2023-04-30T07:41:07.847Z,10.17
2023-04-30T07:43:35.010Z,10.97
2023-04-30T07:46:02.606Z,10.90
2023-04-30T07:48:29.907Z,10.93
2023-04-30T07:50:57.413Z,10.90
2023-04-30T07:53:24.545Z,12.23
2023-04-30T07:55:51.703Z,11.17
2023-04-30T07:58:18.884Z,11.67
2023-04-30T08:00:46.105Z,11.30
2023-04-30T08:03:13.356Z,10.87
2023-04-30T08:05:41.313Z,10.87
2023-04-30T08:08:08.706Z,10.77
2023-04-30T08:10:37.192Z,11.17
2023-04-30T08:13:05.072Z,9.67
2023-04-30T08:15:33.984Z,10.07
2023-04-30T08:18:01.146Z,9.73
2023-04-30T08:20:28.414Z,9.90
2023-04-30T08:22:55.578Z,9.83
2023-04-30T08:25:22.731Z,10.77
2023-04-30T08:27:50.263Z,10.53
2023-04-30T08:30:17.489Z,9.20
2023-04-30T08:32:44.692Z,8.93
2023-04-30T08:35:12.995Z,9.37
2023-04-30T08:37:41.266Z,7.87
2023-04-30T08:40:12.149Z,8.80
2023-04-30T08:42:43.154Z,8.30
2023-04-30T08:45:12.911Z,8.70
2023-04-30T08:47:40.222Z,8.23
2023-04-30T08:50:07.846Z,8.60
2023-04-30T08:52:36.400Z,8.83
2023-04-30T08:55:07.713Z,8.73
2023-04-30T08:57:34.894Z,8.27
2023-04-30T09:00:02.094Z,7.80
2023-04-30T09:02:29.460Z,8.50
2023-04-30T09:04:56.713Z,8.40
2023-04-30T09:07:25.495Z,8.03
2023-04-30T09:09:55.902Z,6.77
2023-04-30T09:12:23.641Z,7.97
2023-04-30T09:15:02.040Z,6.00
2023-04-30T09:17:29.511Z,7.07
2023-04-30T09:20:07.073Z,6.53
2023-04-30T09:22:34.827Z,7.07
2023-04-30T09:25:01.987Z,7.40
2023-04-30T09:27:29.558Z,6.00
2023-04-30T09:29:57.013Z,5.47
2023-04-30T09:32:24.284Z,6.50
2023-04-30T09:34:51.750Z,5.70
2023-04-30T09:37:18.957Z,6.80
2023-04-30T09:39:50.612Z,7.27
2023-04-30T09:42:18.720Z,6.50
2023-04-30T09:44:45.933Z,5.80
2023-04-30T09:47:14.132Z,5.80
2023-04-30T09:49:45.073Z,5.10
2023-04-30T09:52:12.602Z,4.70
2023-04-30T09:54:39.884Z,4.67
2023-04-30T09:57:10.948Z,5.00
2023-04-30T09:59:39.679Z,4.97
2023-04-30T10:02:08.441Z,5.40
2023-04-30T10:04:40.550Z,5.03
2023-04-30T10:07:17.080Z,5.20
2023-04-30T10:09:52.165Z,5.70
2023-04-30T10:12:27.702Z,5.50
2023-04-30T10:15:00.770Z,6.03
2023-04-30T10:17:28.536Z,4.70
2023-04-30T10:19:58.053Z,5.20
2023-04-30T10:22:25.558Z,5.00
2023-04-30T10:24:53.716Z,7.10
2023-04-30T10:27:21.195Z,6.50
2023-04-30T10:29:48.411Z,4.90
2023-04-30T10:32:16.114Z,4.90
2023-04-30T10:34:46.099Z,3.77
2023-04-30T10:37:22.449Z,5.17
2023-04-30T10:39:50.434Z,4.00
2023-04-30T10:42:18.071Z,4.53
2023-04-30T10:44:46.780Z,4.40
2023-04-30T10:47:14.480Z,4.57
2023-04-30T10:49:48.214Z,3.50
2023-04-30T10:52:15.505Z,3.40
2023-04-30T10:54:50.306Z,3.50
2023-04-30T10:57:19.939Z,3.13
2023-04-30T11:00:07.058Z,3.50
2023-04-30T11:02:44.729Z,3.33
2023-04-30T11:05:13.292Z,3.63
2023-04-30T11:07:49.095Z,3.07
2023-04-30T11:10:16.930Z,3.37
2023-04-30T11:12:51.360Z,2.70
2023-04-30T11:15:20.563Z,2.80
2023-04-30T11:17:51.284Z,3.10
2023-04-30T11:20:23.278Z,2.10
2023-04-30T11:23:10.526Z,2.03
2023-04-30T11:25:44.925Z,1.80
2023-04-30T11:28:31.172Z,3.10
2023-04-30T11:31:01.131Z,3.30
2023-04-30T11:33:29.608Z,2.40
2023-04-30T11:35:58.608Z,2.67
2023-04-30T11:38:30.260Z,7.20
2023-04-30T11:41:01.416Z,2.60
2023-04-30T11:43:29.826Z,3.47
2023-04-30T11:46:00.058Z,2.30
2023-04-30T11:48:31.480Z,4.17
2023-04-30T11:50:59.329Z,2.30
2023-04-30T11:53:27.880Z,2.33
2023-04-30T11:55:56.515Z,2.80
2023-04-30T11:58:24.334Z,1.80
2023-04-30T12:00:53.739Z,1.83
2023-04-30T12:03:20.968Z,1.70
2023-04-30T12:05:48.197Z,2.30
2023-04-30T12:08:15.786Z,3.10
2023-04-30T12:10:43.191Z,2.77
2023-04-30T12:13:14.841Z,2.13
2023-04-30T12:15:42.485Z,2.10
2023-04-30T12:18:13.745Z,2.00
2023-04-30T12:20:41.863Z,2.10
2023-04-30T12:23:10.249Z,2.20
2023-04-30T12:25:44.161Z,1.80
2023-04-30T12:28:11.890Z,2.50
2023-04-30T12:30:39.310Z,2.63
2023-04-30T12:33:07.078Z,2.20
2023-04-30T12:35:36.508Z,2.20
2023-04-30T12:38:10.384Z,2.47
2023-04-30T12:40:40.878Z,2.23
2023-04-30T12:43:10.589Z,1.90
2023-04-30T12:45:48.676Z,2.30
2023-04-30T12:48:25.454Z,2.20
2023-04-30T12:50:56.387Z,2.90
2023-04-30T12:53:29.850Z,2.37
2023-04-30T12:56:15.736Z,2.10
2023-04-30T12:58:45.513Z,2.10
2023-04-30T13:01:15.816Z,2.23
2023-04-30T13:03:44.353Z,4.00
2023-04-30T13:06:12.721Z,2.20
2023-04-30T13:08:57.216Z,2.70
2023-04-30T13:11:26.647Z,2.70
2023-04-30T13:13:55.626Z,3.00
2023-04-30T13:16:26.683Z,4.20
2023-04-30T13:18:54.723Z,4.13
2023-04-30T13:21:22.307Z,3.13
2023-04-30T13:23:53.477Z,4.07
2023-04-30T13:26:23.004Z,2.73
2023-04-30T13:28:50.298Z,3.47
2023-04-30T13:31:17.516Z,2.30
2023-04-30T13:33:44.712Z,2.10
2023-04-30T13:36:14.781Z,2.37
2023-04-30T13:38:41.951Z,2.80
2023-04-30T13:41:10.445Z,2.00
2023-04-30T13:43:41.439Z,2.30
2023-04-30T13:46:11.942Z,2.90
2023-04-30T13:48:39.272Z,2.40
2023-04-30T13:51:08.269Z,2.50
2023-04-30T13:53:37.432Z,2.17
2023-04-30T13:56:05.638Z,2.43
2023-04-30T13:58:33.693Z,2.70
2023-04-30T14:01:00.913Z,2.47
2023-04-30T14:03:28.158Z,1.97
2023-04-30T14:05:58.276Z,2.20
2023-04-30T14:08:25.611Z,2.30
2023-04-30T14:10:52.771Z,2.40
2023-04-30T14:13:20.157Z,2.70
2023-04-30T14:15:47.820Z,2.10
2023-04-30T14:18:15.150Z,2.00
2023-04-30T14:20:43.365Z,2.13
2023-04-30T14:23:10.756Z,2.80
2023-04-30T14:25:38.949Z,2.70
2023-04-30T14:28:06.106Z,2.20
2023-04-30T14:30:33.301Z,3.10
2023-04-30T14:33:01.806Z,2.30
2023-04-30T14:35:30.194Z,2.53
2023-04-30T14:37:57.436Z,2.20
2023-04-30T14:40:24.631Z,2.80
2023-04-30T14:42:51.896Z,2.30
2023-04-30T14:45:23.672Z,2.40
2023-04-30T14:47:50.932Z,2.30
2023-04-30T14:50:18.230Z,3.17
2023-04-30T14:52:47.105Z,2.83
2023-04-30T14:55:14.527Z,2.33
2023-04-30T14:57:46.415Z,2.70
2023-04-30T15:00:14.065Z,2.30
2023-04-30T15:02:41.347Z,2.90
2023-04-30T15:05:09.161Z,4.30
2023-04-30T15:07:37.024Z,3.07
2023-04-30T15:10:04.475Z,4.30
2023-04-30T15:12:31.726Z,2.53
2023-04-30T15:15:00.369Z,2.60
2023-04-30T15:17:28.041Z,3.00
2023-04-30T15:19:56.641Z,2.70
2023-04-30T15:22:25.046Z,3.20
2023-04-30T15:24:52.245Z,2.50
2023-04-30T15:27:20.428Z,2.63
2023-04-30T15:29:47.612Z,2.50
2023-04-30T15:32:14.905Z,3.03
2023-04-30T15:34:42.026Z,2.00
2023-04-30T15:37:09.235Z,2.30
2023-04-30T15:39:36.512Z,3.13
2023-04-30T15:42:04.176Z,2.80
2023-04-30T15:44:31.634Z,2.33
2023-04-30T15:46:58.935Z,2.97
2023-04-30T15:49:27.512Z,2.60
2023-04-30T15:51:54.696Z,2.33
2023-04-30T15:54:25.498Z,1.87
2023-04-30T15:56:53.768Z,2.20
2023-04-30T15:59:21.232Z,2.50
2023-04-30T16:01:49.461Z,3.70
2023-04-30T16:04:17.734Z,2.53
2023-04-30T16:06:52.222Z,2.30
2023-04-30T16:09:20.595Z,2.13
2023-04-30T16:11:48.294Z,2.00
2023-04-30T16:14:15.768Z,2.27
2023-04-30T16:16:43.310Z,2.40
2023-04-30T16:19:12.339Z,2.20
2023-04-30T16:21:39.801Z,2.67
2023-04-30T16:24:07.652Z,2.50
2023-04-30T16:26:34.972Z,2.60
2023-04-30T16:29:03.434Z,2.30
2023-04-30T16:31:30.959Z,2.33
2023-04-30T16:33:58.459Z,3.07
2023-04-30T16:36:25.755Z,2.37
2023-04-30T16:38:52.996Z,3.10
2023-04-30T16:41:21.315Z,2.50
2023-04-30T16:43:48.510Z,2.53
2023-04-30T16:46:17.293Z,3.07
2023-04-30T16:48:44.903Z,3.87
2023-04-30T16:51:16.133Z,3.27
2023-04-30T16:53:43.617Z,2.60
2023-04-30T16:56:11.174Z,3.17
2023-04-30T16:58:39.970Z,3.53
2023-04-30T17:01:07.519Z,3.60
2023-04-30T17:03:35.769Z,3.03
2023-04-30T17:06:06.186Z,2.60
2023-04-30T17:08:36.049Z,2.70
2023-04-30T17:11:03.715Z,3.60
2023-04-30T17:13:32.141Z,2.90
2023-04-30T17:16:04.312Z,3.20
2023-04-30T17:18:31.527Z,3.00
2023-04-30T17:20:59.757Z,2.60
2023-04-30T17:23:27.010Z,2.93
2023-04-30T17:25:54.290Z,2.63
2023-04-30T17:28:21.782Z,2.63
2023-04-30T17:30:49.014Z,2.87
2023-04-30T17:33:16.713Z,3.30
2023-04-30T17:35:43.954Z,3.03
2023-04-30T17:38:18.592Z,4.60
2023-04-30T17:40:45.921Z,4.20
2023-04-30T17:43:13.366Z,3.20
2023-04-30T17:45:40.633Z,3.10
2023-04-30T17:48:08.879Z,3.07
2023-04-30T17:50:36.614Z,3.43
2023-04-30T17:53:07.724Z,3.57
2023-04-30T17:55:35.207Z,3.30
2023-04-30T17:58:03.918Z,3.50
2023-04-30T18:00:31.651Z,2.93
2023-04-30T18:02:58.942Z,2.80
2023-04-30T18:05:26.168Z,2.83
2023-04-30T18:07:53.326Z,2.70
2023-04-30T18:10:20.811Z,3.03
2023-04-30T18:12:48.068Z,4.50
2023-04-30T18:15:15.320Z,2.50
2023-04-30T18:17:44.451Z,3.23
2023-04-30T18:20:12.537Z,3.10
2023-04-30T18:22:43.202Z,3.40
2023-04-30T18:25:11.512Z,3.33
2023-04-30T18:27:43.297Z,2.87
2023-04-30T18:30:11.455Z,3.40
2023-04-30T18:32:41.509Z,3.43
2023-04-30T18:35:08.956Z,3.07
2023-04-30T18:37:36.589Z,3.07
2023-04-30T18:40:05.075Z,4.80
2023-04-30T18:42:33.251Z,3.17
2023-04-30T18:45:01.361Z,3.97
2023-04-30T18:47:30.388Z,3.03
2023-04-30T18:49:57.856Z,3.70
2023-04-30T18:52:26.261Z,3.20
2023-04-30T18:54:53.498Z,2.90
2023-04-30T18:57:20.951Z,3.00
2023-04-30T18:59:48.128Z,3.40
2023-04-30T19:02:17.212Z,3.50
2023-04-30T19:04:45.582Z,3.10
2023-04-30T19:07:12.975Z,3.77
2023-04-30T19:09:40.320Z,3.00
2023-04-30T19:12:07.483Z,3.70
2023-04-30T19:14:34.688Z,3.37
2023-04-30T19:17:03.079Z,2.70
2023-04-30T19:19:30.304Z,3.23
2023-04-30T19:21:57.499Z,3.30
2023-04-30T19:24:27.628Z,3.10
2023-04-30T19:26:55.226Z,3.00
2023-04-30T19:29:24.013Z,3.57
2023-04-30T19:31:51.489Z,3.80
2023-04-30T19:34:18.942Z,3.47
2023-04-30T19:36:47.512Z,3.50
2023-04-30T19:39:15.973Z,3.40
2023-04-30T19:41:43.198Z,3.50
2023-04-30T19:44:11.480Z,3.80
2023-04-30T19:46:38.750Z,3.37
2023-04-30T19:49:08.228Z,3.70
2023-04-30T19:51:36.410Z,3.73
2023-04-30T19:54:04.124Z,3.40
2023-04-30T19:56:32.063Z,3.43
2023-04-30T19:58:59.229Z,3.20
2023-04-30T20:01:27.616Z,4.10
2023-04-30T20:03:54.989Z,3.27
2023-04-30T20:06:22.313Z,3.80
2023-04-30T20:08:49.505Z,3.40
2023-04-30T20:11:16.677Z,4.27
2023-04-30T20:13:44.537Z,3.40
2023-04-30T20:16:12.563Z,3.20
2023-04-30T20:18:39.884Z,3.40
2023-04-30T20:21:07.172Z,3.10
2023-04-30T20:23:34.425Z,3.50
2023-04-30T20:26:02.261Z,3.10
2023-04-30T20:28:29.456Z,3.70
2023-04-30T20:30:56.678Z,3.50
2023-04-30T20:33:24.075Z,3.63
2023-04-30T20:35:52.912Z,3.30
2023-04-30T20:38:22.340Z,3.50
2023-04-30T20:40:49.513Z,3.00
2023-04-30T20:43:17.340Z,3.87
2023-04-30T20:45:45.728Z,3.80
2023-04-30T20:48:13.118Z,3.60
2023-04-30T20:50:41.130Z,4.10
2023-04-30T20:53:11.014Z,3.50
2023-04-30T20:55:38.558Z,4.10
2023-04-30T20:58:07.964Z,3.63
2023-04-30T21:00:36.130Z,3.57
2023-04-30T21:03:04.963Z,4.07
2023-04-30T21:05:32.399Z,3.60
2023-04-30T21:08:01.481Z,4.20
2023-04-30T21:10:35.655Z,4.20
2023-04-30T21:13:06.083Z,4.23
2023-04-30T21:15:35.634Z,3.50
2023-04-30T21:18:03.035Z,5.03
2023-04-30T21:20:31.421Z,4.40
2023-04-30T21:22:58.858Z,3.90
2023-04-30T21:25:27.348Z,3.93
2023-04-30T21:27:54.629Z,3.30
2023-04-30T21:30:25.028Z,3.40
2023-04-30T21:32:58.090Z,3.60
2023-04-30T21:35:27.676Z,3.80
2023-04-30T21:37:55.394Z,4.50
2023-04-30T21:40:22.562Z,4.27
2023-04-30T21:42:52.099Z,4.13
2023-04-30T21:45:19.663Z,4.67
2023-04-30T21:47:47.722Z,3.90
2023-04-30T21:50:16.017Z,4.83
2023-04-30T21:52:44.561Z,4.20
2023-04-30T21:55:12.158Z,3.70
2023-04-30T21:57:39.563Z,3.60
2023-04-30T22:00:07.109Z,4.10
2023-04-30T22:02:35.655Z,4.30
2023-04-30T22:05:02.882Z,3.97
2023-04-30T22:07:31.205Z,4.10
2023-04-30T22:09:58.759Z,4.03
2023-04-30T22:12:26.618Z,4.17
2023-04-30T22:14:55.225Z,4.77
2023-04-30T22:17:22.576Z,4.20
2023-04-30T22:19:49.749Z,4.10
2023-04-30T22:22:17.227Z,4.20
2023-04-30T22:24:44.368Z,4.33
2023-04-30T22:27:11.806Z,3.97
2023-04-30T22:29:38.963Z,3.67
2023-04-30T22:32:07.066Z,3.97
2023-04-30T22:34:37.999Z,4.20
2023-04-30T22:37:05.360Z,5.07
2023-04-30T22:39:32.529Z,4.33
2023-04-30T22:42:00.101Z,5.00
2023-04-30T22:44:27.348Z,4.50
2023-04-30T22:46:57.786Z,4.47
2023-04-30T22:49:31.021Z,4.87
2023-04-30T22:51:59.437Z,4.57
2023-04-30T22:54:26.663Z,4.20
2023-04-30T22:56:54.198Z,4.63
2023-04-30T22:59:21.626Z,4.37
2023-04-30T23:01:49.200Z,4.50
2023-04-30T23:04:18.276Z,4.83
2023-04-30T23:06:46.501Z,3.93
2023-04-30T23:09:15.590Z,3.93
2023-04-30T23:11:42.925Z,4.00
2023-04-30T23:14:10.244Z,4.47
2023-04-30T23:16:40.314Z,4.63
2023-04-30T23:19:07.820Z,4.13
2023-04-30T23:21:35.685Z,4.40
2023-04-30T23:24:04.298Z,4.50
2023-04-30T23:26:31.866Z,4.60
2023-04-30T23:28:59.414Z,3.93
2023-04-30T23:31:27.317Z,3.80
2023-04-30T23:33:54.939Z,3.80
2023-04-30T23:36:22.482Z,4.03
2023-04-30T23:38:49.747Z,4.30
2023-04-30T23:41:17.181Z,3.90
2023-04-30T23:43:44.505Z,4.20
2023-04-30T23:46:12.019Z,4.97
2023-04-30T23:48:39.738Z,4.27
2023-04-30T23:51:08.850Z,4.10
2023-04-30T23:53:36.224Z,4.53
2023-04-30T23:56:06.369Z,4.30
2023-04-30T23:58:33.791Z,4.33
